Back to Top

Language: 

My Weather Underground Personal Weather Station Historical Data with Graphs...

Delerius Weather Station Historical Data
Daily Summary for December 1, 2017 Units:  English    Metric   Both
« Previous Day
Next Day »
Daily Weekly Monthly Yearly Custom
  High: Low: Average:
Temperature: 42.1 °F 34.5 °F 37.7 °F
Dew Point: 37.5 °F 31.5 °F 34.3 °F
Humidity: 94 % 77 % 88 %
Wind Speed: 9.0 mph 1.0 mph 6.1 mph
Wind Gust: 18.0 mph - -
Wind:- - NW
Pressure: 30.34 in 30.03 in -
Precipitation: 0.03 in    
Historical Graphs
 
 
Tabular Data for December 1, 2017
Time Temperature Dew Point Pressure Wind Wind Speed Wind Gust Humidity Rainfall Rate (Hourly) solar Conditions
00:00 35.6 °F 33.5 °F 30.03 in NNW 8.0 mph 13.0 mph 92 % 0.01 in 0 W/m2
00:05 35.6 °F 33.5 °F 30.04 in NNW 7.0 mph 18.0 mph 92 % 0.02 in 0 W/m2
00:10 35.6 °F 33.5 °F 30.03 in North 8.0 mph 16.0 mph 92 % 0.02 in 0 W/m2
00:15 35.2 °F 33.1 °F 30.03 in NNW 8.0 mph 14.0 mph 92 % 0.02 in 0 W/m2
00:20 34.9 °F 32.8 °F 30.03 in NW 9.0 mph 14.0 mph 92 % 0.02 in 0 W/m2
00:25 34.9 °F 32.8 °F 30.04 in NNW 7.0 mph 13.0 mph 92 % 0.02 in 0 W/m2
00:30 34.5 °F 32.4 °F 30.04 in NW 6.0 mph 11.0 mph 92 % 0.02 in 0 W/m2
00:35 34.5 °F 32.7 °F 30.03 in NW 5.0 mph 9.0 mph 93 % 0.02 in 0 W/m2
00:40 34.5 °F 32.7 °F 30.03 in NW 6.0 mph 9.0 mph 93 % 0.02 in 0 W/m2
00:41 34.5 °F 32.7 °F 30.03 in NW 6.0 mph 9.0 mph 93 % 0.02 in 0 W/m2
00:46 34.5 °F 32.7 °F 30.04 in NW 7.0 mph 10.0 mph 93 % 0.02 in 0 W/m2
00:51 34.7 °F 32.9 °F 30.04 in NW 6.0 mph 13.0 mph 93 % 0.02 in 0 W/m2
00:56 34.9 °F 33.3 °F 30.04 in NW 5.0 mph 11.0 mph 94 % 0.02 in 0 W/m2
01:01 34.9 °F 33.3 °F 30.04 in NNW 6.0 mph 13.0 mph 94 % 0.02 in 0 W/m2
01:06 35.1 °F 33.2 °F 30.04 in NW 7.0 mph 12.0 mph 93 % 0.02 in 0 W/m2
01:11 35.1 °F 33.2 °F 30.05 in NW 7.0 mph 13.0 mph 93 % 0.02 in 0 W/m2
01:21 35.1 °F 33.2 °F 30.05 in NW 7.0 mph 10.0 mph 93 % 0.01 in 0 W/m2
01:26 35.1 °F 33.2 °F 30.05 in NW 7.0 mph 13.0 mph 93 % 0.01 in 0 W/m2
01:31 35.1 °F 33.2 °F 30.05 in NW 7.0 mph 11.0 mph 93 % 0.01 in 0 W/m2
01:46 35.4 °F 33.9 °F 30.06 in NNW 9.0 mph 13.0 mph 94 % 0.01 in 0 W/m2
01:51 35.4 °F 33.6 °F 30.06 in NW 9.0 mph 15.0 mph 93 % 0.01 in 0 W/m2
02:01 35.6 °F 33.8 °F 30.06 in NNW 7.0 mph 18.0 mph 93 % 0.00 in 0 W/m2
02:06 35.6 °F 33.8 °F 30.07 in NW 7.0 mph 12.0 mph 93 % 0.00 in 0 W/m2
02:11 35.6 °F 33.8 °F 30.07 in NW 7.0 mph 13.0 mph 93 % 0.00 in 0 W/m2
02:21 35.4 °F 33.6 °F 30.07 in NW 5.0 mph 10.0 mph 93 % 0.00 in 0 W/m2
02:26 35.4 °F 33.6 °F 30.07 in NW 6.0 mph 12.0 mph 93 % 0.00 in 0 W/m2
02:36 35.6 °F 33.8 °F 30.08 in NW 7.0 mph 15.0 mph 93 % 0.00 in 0 W/m2
02:41 35.6 °F 33.8 °F 30.08 in NW 7.0 mph 11.0 mph 93 % 0.00 in 0 W/m2
02:46 35.4 °F 33.6 °F 30.08 in NW 8.0 mph 13.0 mph 93 % 0.00 in 0 W/m2
02:56 35.4 °F 33.3 °F 30.09 in NW 7.0 mph 12.0 mph 92 % 0.00 in 0 W/m2
03:01 35.4 °F 33.6 °F 30.09 in NW 7.0 mph 13.0 mph 93 % 0.00 in 0 W/m2
03:13 35.6 °F 33.8 °F 30.10 in NW 8.0 mph 14.0 mph 93 % 0.00 in 0 W/m2
03:19 35.8 °F 34.0 °F 30.10 in NW 7.0 mph 12.0 mph 93 % 0.00 in 0 W/m2
03:25 35.8 °F 34.0 °F 30.10 in NW 8.0 mph 12.0 mph 93 % 0.00 in 0 W/m2
03:27 35.8 °F 34.0 °F 30.10 in NW 8.0 mph 12.0 mph 93 % 0.00 in 0 W/m2
03:31 35.8 °F 33.7 °F 30.10 in NW 6.0 mph 10.0 mph 92 % 0.00 in 0 W/m2
03:36 35.8 °F 33.7 °F 30.11 in NW 5.0 mph 9.0 mph 92 % 0.00 in 0 W/m2
03:41 35.8 °F 33.7 °F 30.11 in NW 6.0 mph 12.0 mph 92 % 0.00 in 0 W/m2
03:45 35.8 °F 34.0 °F 30.11 in NW 6.0 mph 10.0 mph 93 % 0.00 in 0 W/m2
03:50 35.6 °F 33.8 °F 30.12 in NW 7.0 mph 13.0 mph 93 % 0.00 in 0 W/m2
03:55 35.6 °F 33.8 °F 30.12 in NW 6.0 mph 9.0 mph 93 % 0.00 in 0 W/m2
04:00 35.4 °F 33.3 °F 30.12 in NW 5.0 mph 9.0 mph 92 % 0.00 in 0 W/m2
04:05 35.4 °F 33.3 °F 30.12 in NW 8.0 mph 11.0 mph 92 % 0.00 in 0 W/m2
04:11 35.2 °F 33.4 °F 30.13 in NW 5.0 mph 9.0 mph 93 % 0.00 in 0 W/m2
04:12 35.2 °F 33.4 °F 30.13 in NW 6.0 mph 9.0 mph 93 % 0.00 in 0 W/m2
04:17 35.2 °F 33.4 °F 30.13 in NW 8.0 mph 14.0 mph 93 % 0.00 in 0 W/m2
04:22 35.2 °F 33.4 °F 30.13 in NW 7.0 mph 13.0 mph 93 % 0.00 in 0 W/m2
04:27 35.2 °F 33.4 °F 30.13 in NW 7.0 mph 12.0 mph 93 % 0.00 in 0 W/m2
04:29 35.2 °F 33.4 °F 30.13 in NW 6.0 mph 11.0 mph 93 % 0.00 in 0 W/m2
04:34 35.4 °F 33.6 °F 30.14 in NW 7.0 mph 12.0 mph 93 % 0.00 in 0 W/m2
04:39 35.4 °F 33.6 °F 30.14 in NW 7.0 mph 12.0 mph 93 % 0.00 in 0 W/m2
04:44 35.4 °F 33.6 °F 30.14 in NW 7.0 mph 11.0 mph 93 % 0.00 in 0 W/m2
04:54 35.6 °F 33.8 °F 30.14 in NW 9.0 mph 14.0 mph 93 % 0.00 in 0 W/m2
04:59 35.8 °F 34.0 °F 30.14 in NW 6.0 mph 14.0 mph 93 % 0.00 in 0 W/m2
05:09 36.0 °F 34.1 °F 30.14 in NW 8.0 mph 14.0 mph 93 % 0.00 in 0 W/m2
05:14 36.0 °F 34.1 °F 30.15 in NW 6.0 mph 11.0 mph 93 % 0.00 in 0 W/m2
05:19 36.0 °F 34.1 °F 30.15 in NW 7.0 mph 12.0 mph 93 % 0.00 in 0 W/m2
05:24 36.0 °F 34.1 °F 30.15 in NW 5.0 mph 8.0 mph 93 % 0.00 in 0 W/m2
05:29 36.0 °F 34.1 °F 30.15 in NW 6.0 mph 11.0 mph 93 % 0.01 in 0 W/m2
05:34 36.0 °F 34.1 °F 30.15 in NW 7.0 mph 12.0 mph 93 % 0.01 in 0 W/m2
05:39 36.0 °F 34.1 °F 30.15 in NW 6.0 mph 9.0 mph 93 % 0.01 in 0 W/m2
05:44 36.0 °F 34.1 °F 30.15 in NW 7.0 mph 12.0 mph 93 % 0.01 in 0 W/m2
05:54 35.8 °F 33.7 °F 30.16 in NW 6.0 mph 11.0 mph 92 % 0.01 in 0 W/m2
05:59 35.8 °F 34.0 °F 30.16 in NW 5.0 mph 8.0 mph 93 % 0.01 in 0 W/m2
06:04 35.6 °F 33.5 °F 30.16 in WNW 1.0 mph 5.0 mph 92 % 0.01 in 0 W/m2
06:09 35.4 °F 33.3 °F 30.16 in NW 3.0 mph 6.0 mph 92 % 0.01 in 0 W/m2
06:14 35.2 °F 33.1 °F 30.17 in NW 5.0 mph 9.0 mph 92 % 0.01 in 0 W/m2
06:19 35.2 °F 33.1 °F 30.17 in WNW 5.0 mph 8.0 mph 92 % 0.01 in 0 W/m2
06:24 35.2 °F 33.4 °F 30.17 in NW 6.0 mph 8.0 mph 93 % 0.01 in 0 W/m2
06:29 35.2 °F 33.4 °F 30.17 in NW 6.0 mph 10.0 mph 93 % 0.00 in 0 W/m2
06:35 35.2 °F 33.4 °F 30.17 in NW 6.0 mph 10.0 mph 93 % 0.00 in 0 W/m2
06:40 35.2 °F 33.4 °F 30.17 in NW 7.0 mph 11.0 mph 93 % 0.00 in 0 W/m2
06:45 35.4 °F 33.6 °F 30.18 in NW 7.0 mph 12.0 mph 93 % 0.00 in 0 W/m2
06:50 35.4 °F 33.6 °F 30.18 in NW 7.0 mph 11.0 mph 93 % 0.00 in 0 W/m2
07:00 35.6 °F 33.8 °F 30.19 in NW 6.0 mph 10.0 mph 93 % 0.00 in 0 W/m2
07:05 35.8 °F 34.0 °F 30.19 in NW 7.0 mph 11.0 mph 93 % 0.00 in 0 W/m2
07:10 36.0 °F 34.1 °F 30.19 in NW 6.0 mph 9.0 mph 93 % 0.00 in 0 W/m2
07:15 36.0 °F 34.1 °F 30.19 in NW 5.0 mph 11.0 mph 93 % 0.00 in 0 W/m2
07:20 36.1 °F 34.3 °F 30.20 in NNW 5.0 mph 7.0 mph 93 % 0.00 in 0 W/m2
07:25 36.1 °F 34.3 °F 30.20 in NW 7.0 mph 11.0 mph 93 % 0.00 in 0 W/m2
07:30 36.1 °F 34.3 °F 30.20 in NW 6.0 mph 11.0 mph 93 % 0.00 in 0 W/m2
07:35 36.3 °F 34.5 °F 30.20 in NW 5.0 mph 9.0 mph 93 % 0.00 in 0 W/m2
07:40 36.3 °F 34.5 °F 30.20 in NW 6.0 mph 10.0 mph 93 % 0.00 in 0 W/m2
07:45 36.3 °F 34.5 °F 30.21 in NW 8.0 mph 11.0 mph 93 % 0.00 in 0 W/m2
07:50 36.3 °F 34.5 °F 30.21 in NNW 7.0 mph 10.0 mph 93 % 0.00 in 0 W/m2
07:55 36.5 °F 34.7 °F 30.21 in NNW 7.0 mph 12.0 mph 93 % 0.00 in 0 W/m2
08:00 36.7 °F 34.6 °F 30.22 in NW 7.0 mph 9.0 mph 92 % 0.00 in 0 W/m2
08:05 36.7 °F 34.8 °F 30.21 in NW 6.0 mph 12.0 mph 93 % 0.00 in 5 W/m2
08:10 36.7 °F 34.8 °F 30.22 in NW 6.0 mph 10.0 mph 93 % 0.00 in 7 W/m2
08:15 36.7 °F 34.6 °F 30.22 in NW 8.0 mph 14.0 mph 92 % 0.00 in 9 W/m2
08:20 36.7 °F 34.6 °F 30.23 in NNW 6.0 mph 9.0 mph 92 % 0.00 in 12 W/m2
08:25 36.7 °F 34.6 °F 30.23 in NNW 6.0 mph 11.0 mph 92 % 0.00 in 16 W/m2
08:30 36.7 °F 34.6 °F 30.23 in NNW 5.0 mph 10.0 mph 92 % 0.00 in 14 W/m2
08:35 36.9 °F 34.8 °F 30.23 in NNW 6.0 mph 10.0 mph 92 % 0.00 in 18 W/m2
08:40 36.9 °F 34.8 °F 30.24 in NNW 7.0 mph 11.0 mph 92 % 0.00 in 21 W/m2
08:45 37.0 °F 34.9 °F 30.24 in NW 6.0 mph 11.0 mph 92 % 0.00 in 21 W/m2
08:50 37.0 °F 34.9 °F 30.24 in NNW 6.0 mph 10.0 mph 92 % 0.00 in 25 W/m2
09:00 36.9 °F 34.8 °F 30.24 in NNW 4.0 mph 10.0 mph 92 % 0.00 in 21 W/m2
09:10 36.9 °F 34.8 °F 30.24 in NNW 5.0 mph 10.0 mph 92 % 0.00 in 86 W/m2
09:15 36.9 °F 34.8 °F 30.25 in NW 6.0 mph 10.0 mph 92 % 0.00 in 109 W/m2
09:20 36.9 °F 34.8 °F 30.25 in NW 7.0 mph 14.0 mph 92 % 0.00 in 46 W/m2
09:26 37.0 °F 34.9 °F 30.25 in NW 8.0 mph 16.0 mph 92 % 0.00 in 42 W/m2
09:31 37.0 °F 34.9 °F 30.25 in NW 6.0 mph 12.0 mph 92 % 0.00 in 160 W/m2
09:36 37.4 °F 35.3 °F 30.25 in NW 6.0 mph 12.0 mph 92 % 0.00 in 109 W/m2
09:41 37.8 °F 35.6 °F 30.26 in NW 7.0 mph 12.0 mph 92 % 0.00 in 74 W/m2
09:46 37.9 °F 35.8 °F 30.26 in NW 9.0 mph 14.0 mph 92 % 0.00 in 69 W/m2
09:56 37.9 °F 35.5 °F 30.26 in NW 8.0 mph 12.0 mph 91 % 0.00 in 72 W/m2
10:06 37.9 °F 35.5 °F 30.26 in NW 3.0 mph 10.0 mph 91 % 0.00 in 37 W/m2
10:11 37.9 °F 35.5 °F 30.27 in NW 6.0 mph 10.0 mph 91 % 0.00 in 39 W/m2
10:16 37.9 °F 35.5 °F 30.27 in NW 9.0 mph 14.0 mph 91 % 0.00 in 54 W/m2
10:21 37.9 °F 35.3 °F 30.27 in NNW 6.0 mph 12.0 mph 90 % 0.00 in 79 W/m2
10:26 38.1 °F 35.7 °F 30.27 in NW 6.0 mph 11.0 mph 91 % 0.00 in 137 W/m2
10:31 38.5 °F 36.1 °F 30.27 in NW 6.0 mph 9.0 mph 91 % 0.00 in 90 W/m2
10:36 38.5 °F 36.1 °F 30.27 in NNW 6.0 mph 9.0 mph 91 % 0.00 in 79 W/m2
10:41 38.7 °F 36.0 °F 30.27 in NW 6.0 mph 10.0 mph 90 % 0.00 in 102 W/m2
10:46 38.8 °F 36.2 °F 30.27 in NW 7.0 mph 11.0 mph 90 % 0.00 in 76 W/m2
10:51 38.8 °F 36.2 °F 30.27 in NW 5.0 mph 9.0 mph 90 % 0.00 in 113 W/m2
11:01 39.2 °F 36.2 °F 30.27 in NNW 6.0 mph 10.0 mph 89 % 0.00 in 90 W/m2
11:06 39.2 °F 36.2 °F 30.27 in NNW 6.0 mph 11.0 mph 89 % 0.00 in 98 W/m2
11:11 39.2 °F 36.2 °F 30.27 in NNW 6.0 mph 10.0 mph 89 % 0.00 in 90 W/m2
11:16 39.4 °F 36.4 °F 30.27 in NNW 8.0 mph 15.0 mph 89 % 0.00 in 97 W/m2
11:21 39.7 °F 36.8 °F 30.27 in NW 3.0 mph 10.0 mph 89 % 0.00 in 132 W/m2
11:26 39.7 °F 36.5 °F 30.27 in NNW 8.0 mph 13.0 mph 88 % 0.00 in 156 W/m2
11:32 39.9 °F 36.7 °F 30.27 in NNW 9.0 mph 16.0 mph 88 % 0.00 in 97 W/m2
11:37 39.9 °F 36.4 °F 30.27 in NNW 8.0 mph 12.0 mph 87 % 0.00 in 93 W/m2
11:42 40.3 °F 37.0 °F 30.27 in NNW 6.0 mph 10.0 mph 88 % 0.00 in 285 W/m2
11:52 40.8 °F 37.3 °F 30.28 in NNW 5.0 mph 12.0 mph 87 % 0.00 in 169 W/m2
11:57 41.0 °F 37.1 °F 30.28 in North 8.0 mph 13.0 mph 86 % 0.00 in 105 W/m2
12:02 40.8 °F 37.0 °F 30.27 in NNW 6.0 mph 12.0 mph 86 % 0.00 in 120 W/m2
12:07 40.6 °F 36.8 °F 30.27 in North 6.0 mph 11.0 mph 86 % 0.00 in 148 W/m2
12:18 40.8 °F 37.0 °F 30.28 in North 5.0 mph 9.0 mph 86 % 0.00 in 255 W/m2
12:28 41.4 °F 37.2 °F 30.27 in NNW 5.0 mph 8.0 mph 85 % 0.00 in 253 W/m2
12:38 41.7 °F 37.5 °F 30.28 in NNE 3.0 mph 8.0 mph 85 % 0.00 in 95 W/m2
12:53 41.4 °F 36.9 °F 30.28 in NNW 3.0 mph 6.0 mph 84 % 0.00 in 70 W/m2
12:58 41.4 °F 36.9 °F 30.28 in NNW 6.0 mph 10.0 mph 84 % 0.00 in 98 W/m2
13:03 41.2 °F 36.7 °F 30.28 in NNW 7.0 mph 12.0 mph 84 % 0.00 in 60 W/m2
13:08 41.2 °F 36.7 °F 30.28 in NNW 8.0 mph 13.0 mph 84 % 0.00 in 241 W/m2
13:13 41.4 °F 36.9 °F 30.28 in NW 5.0 mph 9.0 mph 84 % 0.00 in 86 W/m2
13:18 41.5 °F 37.1 °F 30.28 in NNW 8.0 mph 12.0 mph 84 % 0.00 in 58 W/m2
13:23 41.5 °F 36.8 °F 30.28 in NNW 6.0 mph 11.0 mph 83 % 0.00 in 69 W/m2
13:28 41.4 °F 36.6 °F 30.28 in NNW 9.0 mph 14.0 mph 83 % 0.00 in 65 W/m2
13:38 41.2 °F 36.4 °F 30.28 in NNW 5.0 mph 10.0 mph 83 % 0.00 in 76 W/m2
13:48 41.2 °F 36.7 °F 30.28 in NW 8.0 mph 13.0 mph 84 % 0.00 in 149 W/m2
13:53 41.4 °F 36.9 °F 30.28 in NW 8.0 mph 12.0 mph 84 % 0.00 in 134 W/m2
13:58 41.7 °F 37.2 °F 30.28 in NW 7.0 mph 11.0 mph 84 % 0.00 in 146 W/m2
14:03 42.1 °F 37.3 °F 30.28 in NW 7.0 mph 11.0 mph 83 % 0.00 in 123 W/m2
14:13 41.9 °F 36.8 °F 30.28 in NW 7.0 mph 11.0 mph 82 % 0.00 in 88 W/m2
14:23 41.5 °F 36.5 °F 30.28 in NW 8.0 mph 14.0 mph 82 % 0.00 in 74 W/m2
14:28 41.4 °F 36.3 °F 30.29 in NW 7.0 mph 12.0 mph 82 % 0.00 in 63 W/m2
14:33 41.2 °F 36.1 °F 30.29 in NNW 7.0 mph 10.0 mph 82 % 0.00 in 49 W/m2
14:38 41.0 °F 35.9 °F 30.29 in NW 7.0 mph 10.0 mph 82 % 0.00 in 44 W/m2
14:43 41.0 °F 35.9 °F 30.29 in NW 7.0 mph 11.0 mph 82 % 0.00 in 44 W/m2
14:48 40.8 °F 35.7 °F 30.29 in NNW 8.0 mph 14.0 mph 82 % 0.00 in 40 W/m2
14:58 40.6 °F 35.6 °F 30.30 in NNW 8.0 mph 13.0 mph 82 % 0.00 in 23 W/m2
15:03 40.5 °F 35.4 °F 30.30 in NNW 7.0 mph 13.0 mph 82 % 0.00 in 23 W/m2
15:18 40.3 °F 35.2 °F 30.30 in NNW 6.0 mph 13.0 mph 82 % 0.00 in 14 W/m2
15:28 39.9 °F 34.9 °F 30.30 in NNW 5.0 mph 14.0 mph 82 % 0.00 in 11 W/m2
15:43 39.7 °F 35.0 °F 30.30 in NW 5.0 mph 8.0 mph 83 % 0.00 in 7 W/m2
15:48 39.7 °F 35.0 °F 30.31 in NW 6.0 mph 11.0 mph 83 % 0.00 in 0 W/m2
15:59 39.7 °F 35.0 °F 30.31 in NW 5.0 mph 10.0 mph 83 % 0.00 in 0 W/m2
16:24 39.6 °F 34.8 °F 30.31 in WNW 4.0 mph 6.0 mph 83 % 0.00 in 0 W/m2
16:39 39.6 °F 35.1 °F 30.32 in NW 5.0 mph 10.0 mph 84 % 0.00 in 0 W/m2
16:40 39.4 °F 34.9 °F 30.32 in NW 6.0 mph 10.0 mph 84 % 0.00 in 0 W/m2
16:45 39.4 °F 34.9 °F 30.32 in NW 6.0 mph 10.0 mph 84 % 0.00 in 0 W/m2
16:50 39.4 °F 34.6 °F 30.32 in NW 5.0 mph 8.0 mph 83 % 0.00 in 0 W/m2
16:55 39.4 °F 34.6 °F 30.32 in NW 5.0 mph 8.0 mph 83 % 0.00 in 0 W/m2
17:00 39.4 °F 34.6 °F 30.32 in NW 5.0 mph 10.0 mph 83 % 0.00 in 0 W/m2
17:05 39.4 °F 34.6 °F 30.32 in NW 5.0 mph 8.0 mph 83 % 0.00 in 0 W/m2
17:10 39.4 °F 34.6 °F 30.32 in NW 5.0 mph 10.0 mph 83 % 0.00 in 0 W/m2
17:20 39.6 °F 34.5 °F 30.32 in NW 5.0 mph 8.0 mph 82 % 0.00 in 0 W/m2
17:25 39.6 °F 34.5 °F 30.32 in NW 6.0 mph 8.0 mph 82 % 0.00 in 0 W/m2
17:35 39.6 °F 34.5 °F 30.32 in NW 5.0 mph 8.0 mph 82 % 0.00 in 0 W/m2
17:42 39.4 °F 34.0 °F 30.32 in NW 4.0 mph 7.0 mph 81 % 0.00 in 0 W/m2
17:47 39.4 °F 34.3 °F 30.32 in WNW 5.0 mph 7.0 mph 82 % 0.00 in 0 W/m2
17:52 39.4 °F 34.3 °F 30.32 in WNW 5.0 mph 7.0 mph 82 % 0.00 in 0 W/m2
17:57 39.4 °F 34.3 °F 30.32 in WNW 5.0 mph 7.0 mph 82 % 0.00 in 0 W/m2
18:12 39.0 °F 34.0 °F 30.32 in NW 5.0 mph 5.0 mph 82 % 0.00 in 0 W/m2
18:17 39.0 °F 34.0 °F 30.32 in NW 5.0 mph 5.0 mph 82 % 0.00 in 0 W/m2
18:22 39.0 °F 34.0 °F 30.32 in NW 5.0 mph 5.0 mph 82 % 0.00 in 0 W/m2
18:27 39.0 °F 34.0 °F 30.32 in NW 5.0 mph 5.0 mph 82 % 0.00 in 0 W/m2
18:37 39.0 °F 34.0 °F 30.32 in NW 5.0 mph 5.0 mph 82 % 0.00 in 0 W/m2
18:47 39.0 °F 34.0 °F 30.32 in NW 5.0 mph 5.0 mph 82 % 0.00 in 0 W/m2
18:52 39.0 °F 34.0 °F 30.33 in NW 5.0 mph 5.0 mph 82 % 0.00 in 0 W/m2
18:57 39.0 °F 34.0 °F 30.32 in NW 5.0 mph 5.0 mph 82 % 0.00 in 0 W/m2
19:02 39.0 °F 34.0 °F 30.33 in NW 5.0 mph 5.0 mph 82 % 0.00 in 0 W/m2
19:07 39.0 °F 34.0 °F 30.33 in NW 5.0 mph 5.0 mph 82 % 0.00 in 0 W/m2
19:12 39.0 °F 34.0 °F 30.33 in NW 5.0 mph 5.0 mph 82 % 0.00 in 0 W/m2
19:17 39.0 °F 34.0 °F 30.33 in NW 5.0 mph 5.0 mph 82 % 0.00 in 0 W/m2
19:22 39.0 °F 34.0 °F 30.32 in NW 5.0 mph 5.0 mph 82 % 0.00 in 0 W/m2
19:27 39.0 °F 34.0 °F 30.33 in NW 5.0 mph 5.0 mph 82 % 0.00 in 0 W/m2
19:37 39.0 °F 34.0 °F 30.33 in NW 5.0 mph 5.0 mph 82 % 0.00 in 0 W/m2
19:52 39.0 °F 34.0 °F 30.33 in NW 5.0 mph 5.0 mph 82 % 0.00 in 0 W/m2
19:57 39.0 °F 34.0 °F 30.33 in NW 5.0 mph 5.0 mph 82 % 0.00 in 0 W/m2
20:02 39.0 °F 34.0 °F 30.33 in NW 5.0 mph 5.0 mph 82 % 0.00 in 0 W/m2
20:12 39.0 °F 34.0 °F 30.34 in NW 5.0 mph 5.0 mph 82 % 0.00 in 0 W/m2
20:22 39.0 °F 34.0 °F 30.34 in NW 5.0 mph 5.0 mph 82 % 0.00 in 0 W/m2
20:27 39.0 °F 34.0 °F 30.34 in NW 5.0 mph 5.0 mph 82 % 0.00 in 0 W/m2
20:37 39.0 °F 34.0 °F 30.34 in NW 5.0 mph 5.0 mph 82 % 0.00 in 0 W/m2
20:52 38.5 °F 33.2 °F 30.34 in NW 5.0 mph 5.0 mph 81 % 0.00 in 0 W/m2
20:57 38.3 °F 33.0 °F 30.34 in WNW 3.0 mph 4.0 mph 81 % 0.00 in 0 W/m2
21:07 38.1 °F 32.8 °F 30.34 in WNW 5.0 mph 7.0 mph 81 % 0.00 in 0 W/m2
21:12 38.1 °F 32.8 °F 30.34 in WNW 5.0 mph 8.0 mph 81 % 0.00 in 0 W/m2
21:17 38.3 °F 33.0 °F 30.33 in WNW 5.0 mph 6.0 mph 81 % 0.00 in 0 W/m2
21:22 38.3 °F 33.0 °F 30.33 in WNW 5.0 mph 9.0 mph 81 % 0.00 in 0 W/m2
21:27 38.3 °F 32.7 °F 30.33 in WNW 6.0 mph 8.0 mph 80 % 0.00 in 0 W/m2
21:32 38.3 °F 32.7 °F 30.33 in WNW 5.0 mph 8.0 mph 80 % 0.00 in 0 W/m2
21:42 38.3 °F 32.7 °F 30.34 in WNW 6.0 mph 8.0 mph 80 % 0.00 in 0 W/m2
21:47 38.3 °F 32.7 °F 30.34 in WNW 6.0 mph 8.0 mph 80 % 0.00 in 0 W/m2
21:52 38.1 °F 32.5 °F 30.34 in WNW 6.0 mph 9.0 mph 80 % 0.00 in 0 W/m2
21:57 38.1 °F 32.5 °F 30.34 in WNW 6.0 mph 9.0 mph 80 % 0.00 in 0 W/m2
22:02 38.1 °F 32.5 °F 30.34 in WNW 6.0 mph 8.0 mph 80 % 0.00 in 0 W/m2
22:07 38.1 °F 32.5 °F 30.34 in WNW 6.0 mph 8.0 mph 80 % 0.00 in 0 W/m2
22:12 38.1 °F 32.5 °F 30.34 in WNW 7.0 mph 10.0 mph 80 % 0.00 in 0 W/m2
22:32 38.1 °F 32.2 °F 30.34 in WNW 5.0 mph 9.0 mph 79 % 0.00 in 0 W/m2
22:37 38.1 °F 32.2 °F 30.34 in WNW 7.0 mph 9.0 mph 79 % 0.00 in 0 W/m2
22:42 38.1 °F 32.2 °F 30.33 in WNW 6.0 mph 8.0 mph 79 % 0.00 in 0 W/m2
22:47 38.1 °F 32.2 °F 30.33 in WNW 5.0 mph 7.0 mph 79 % 0.00 in 0 W/m2
23:02 38.1 °F 32.2 °F 30.32 in WNW 6.0 mph 8.0 mph 79 % 0.00 in 0 W/m2
23:07 38.1 °F 32.2 °F 30.32 in WNW 5.0 mph 7.0 mph 79 % 0.00 in 0 W/m2
23:12 38.1 °F 31.9 °F 30.33 in WNW 5.0 mph 9.0 mph 78 % 0.00 in 0 W/m2
23:17 38.1 °F 31.9 °F 30.33 in WNW 5.0 mph 7.0 mph 78 % 0.00 in 0 W/m2
23:23 38.1 °F 31.9 °F 30.33 in WNW 5.0 mph 8.0 mph 78 % 0.00 in 0 W/m2
23:30 38.1 °F 31.9 °F 30.33 in WNW 5.0 mph 7.0 mph 78 % 0.00 in 0 W/m2
23:35 38.1 °F 31.9 °F 30.33 in WNW 4.0 mph 7.0 mph 78 % 0.00 in 0 W/m2
23:45 38.1 °F 31.9 °F 30.33 in WNW 5.0 mph 8.0 mph 78 % 0.00 in 0 W/m2
23:50 38.1 °F 31.5 °F 30.33 in WNW 3.0 mph 7.0 mph 77 % 0.00 in 0 W/m2
Delerius-Weather
Compliments of Weather Underground - 2 mb

Data updates at regular intervals.